Time;durP1;ratioP1;P1;durP2;ratioP2;P2;SDS_P1;SDS_P2;PMS_P1;PMS_P2;Temp;Humidity;BMP_temperature;BMP_pressure;BME280_temperature;BME280_humidity;BME280_pressure;Samples;Min_cycle;Max_cycle;Signal;HPM_P1;HPM_P2
2024/01/18 14:47:29;;;;;;;2.20;1.80;;;;;;;13.01;49.19;95692.21;105481;1256;61958;-37
2024/01/18 14:51:49;;;;;;;2.70;2.00;;;;;;;13.00;49.17;95695.34;105235;1259;76373;-38
2024/01/18 14:54:16;;;;;;;2.20;1.90;;;;;;;13.00;49.29;95699.50;105237;1264;66004;-38
2024/01/18 15:00:50;;;;;;;2.50;2.10;;;;;;;13.00;49.30;95700.17;105054;1264;62173;-38
2024/01/18 15:03:45;;;;;;;2.00;1.70;;;;;;;13.01;49.01;95699.96;105305;1264;62044;-38
2024/01/18 15:17:53;;;;;;;2.20;1.70;;;;;;;12.99;49.07;95712.54;105423;1263;71231;-38
2024/01/18 15:20:20;;;;;;;2.30;2.00;;;;;;;12.99;49.13;95712.39;105240;1257;62180;-38
2024/01/18 15:23:52;;;;;;;2.40;2.20;;;;;;;12.99;49.23;95715.36;105710;1253;62037;-38
2024/01/18 16:21:09;;;;;;;2.30;1.80;;;;;;;12.99;49.04;95773.32;105276;1256;75764;-39
2024/01/18 16:24:12;;;;;;;2.60;2.00;;;;;;;12.99;49.11;95778.70;105485;1260;65361;-37
2024/01/18 16:28:59;;;;;;;2.00;1.70;;;;;;;12.99;49.11;95779.41;105178;1258;73497;-38
2024/01/18 16:37:22;;;;;;;2.40;1.70;;;;;;;12.98;49.10;95786.73;104568;1263;62149;-38
2024/01/18 16:40:21;;;;;;;2.00;1.80;;;;;;;12.98;49.02;95782.60;105132;1264;76170;-38
2024/01/18 16:47:59;;;;;;;2.30;1.90;;;;;;;12.98;49.07;95782.98;104858;1262;73759;-38
2024/01/18 16:50:29;;;;;;;2.80;2.10;;;;;;;12.97;49.08;95783.27;104916;1265;62168;-38
2024/01/18 16:53:28;;;;;;;2.20;2.00;;;;;;;12.96;48.92;95782.79;104859;1262;62164;-38
2024/01/18 16:55:55;;;;;;;1.80;1.60;;;;;;;12.96;49.13;95786.94;105116;1257;76571;-38
2024/01/18 16:59:40;;;;;;;2.10;1.70;;;;;;;12.96;49.08;95792.31;105244;1260;67160;-38
2024/01/18 17:02:40;;;;;;;2.50;1.80;;;;;;;12.96;49.00;95796.23;105613;1256;73116;-38
2024/01/18 17:05:07;;;;;;;2.20;1.60;;;;;;;12.95;49.11;95797.37;105504;1258;62033;-39
2024/01/18 17:07:35;;;;;;;2.20;2.00;;;;;;;12.95;49.08;95800.05;105371;1257;62156;-39
2024/01/18 17:15:31;;;;;;;2.00;1.70;;;;;;;12.95;49.08;95802.98;105514;1258;66932;-38
2024/01/18 17:27:05;;;;;;;1.90;1.60;;;;;;;12.92;49.04;95805.38;105343;1259;62067;-40
2024/01/18 17:30:05;;;;;;;2.30;2.00;;;;;;;12.92;49.22;95802.05;105578;1256;74175;-39
2024/01/18 18:27:48;;;;;;;2.00;1.70;;;;;;;12.87;49.16;95815.04;105399;1254;67076;-38
2024/01/18 18:30:47;;;;;;;2.50;1.80;;;;;;;12.86;49.12;95814.86;105787;1257;73436;-39
2024/01/18 18:34:06;;;;;;;2.20;2.00;;;;;;;12.86;49.10;95808.55;105210;1260;62047;-38
2024/01/18 18:37:22;;;;;;;2.40;1.70;;;;;;;12.85;49.04;95804.02;105773;1260;62134;-38
2024/01/18 18:40:32;;;;;;;1.80;1.60;;;;;;;12.85;49.10;95804.94;105252;1261;75784;-39
2024/01/18 18:48:05;;;;;;;2.50;1.80;;;;;;;12.84;49.01;95807.67;105186;1262;72611;-38
2024/01/18 19:00:37;;;;;;;2.40;1.70;;;;;;;12.83;49.11;95819.33;105528;1257;77566;-39
2024/01/18 19:03:37;;;;;;;1.80;1.70;;;;;;;12.82;49.24;95821.62;105247;1261;66998;-38
2024/01/18 19:34:48;;;;;;;2.60;1.80;;;;;;;12.82;49.13;95833.59;105387;1261;74157;-38
2024/01/18 19:37:47;;;;;;;2.20;1.90;;;;;;;12.83;49.30;95835.14;105251;1260;61930;-38
2024/01/18 19:51:03;;;;;;;2.30;1.80;;;;;;;12.83;49.22;95841.52;105265;1257;66945;-38
2024/01/18 19:54:40;;;;;;;2.00;1.60;;;;;;;12.84;49.24;95842.28;105150;1260;74083;-39
2024/01/18 20:02:36;;;;;;;1.70;1.60;;;;;;;12.84;49.19;95853.20;104763;1263;62461;-38
2024/01/18 20:05:08;;;;;;;1.90;1.70;;;;;;;12.84;49.23;95856.58;104805;1268;75296;-39
2024/01/18 20:08:39;;;;;;;2.50;1.90;;;;;;;12.85;49.25;95860.13;104868;1266;66103;-39
2024/01/18 20:11:38;;;;;;;2.00;1.70;;;;;;;12.86;49.21;95858.83;105026;1254;72880;-39
2024/01/18 20:15:10;;;;;;;1.90;1.70;;;;;;;12.86;49.18;95861.75;105396;1267;62213;-39
2024/01/18 20:18:10;;;;;;;2.20;1.60;;;;;;;12.86;49.22;95860.60;105575;1258;62194;-38
2024/01/18 20:21:42;;;;;;;1.90;1.20;;;;;;;12.86;49.17;95857.23;105593;1259;76644;-38
2024/01/18 20:31:30;;;;;;;1.80;1.60;;;;;;;12.87;49.20;95870.30;105450;1255;74062;-38
2024/01/18 20:33:57;;;;;;;1.70;1.50;;;;;;;12.87;49.31;95865.08;105648;1258;62098;-38
2024/01/18 20:48:45;;;;;;;1.40;1.30;;;;;;;12.88;49.23;95888.52;105412;1254;65393;-39
2024/01/18 20:51:46;;;;;;;1.70;1.60;;;;;;;12.89;49.23;95893.59;105189;1259;73194;-37
2024/01/18 20:54:14;;;;;;;1.60;1.50;;;;;;;12.90;49.19;95894.77;105539;1258;61927;-38
2024/01/18 20:57:59;;;;;;;1.90;1.60;;;;;;;12.90;49.07;95901.14;105438;1259;62649;-39
2024/01/18 21:00:59;;;;;;;2.00;1.60;;;;;;;12.90;49.28;95897.99;105509;1254;76479;-38
2024/01/18 21:22:07;;;;;;;1.80;1.40;;;;;;;12.92;49.13;95911.77;105759;1261;76295;-39
2024/01/18 21:25:06;;;;;;;1.90;1.60;;;;;;;12.92;49.07;95909.84;105250;1262;67195;-39
2024/01/18 21:33:08;;;;;;;1.50;1.40;;;;;;;12.93;49.13;95908.34;105482;1261;62025;-37
2024/01/18 21:57:45;;;;;;;1.70;1.50;;;;;;;12.93;49.17;95912.64;105375;1254;63730;-39
2024/01/18 22:22:43;;;;;;;1.50;1.40;;;;;;;12.94;49.12;95927.70;105318;1257;62189;-39
2024/01/18 22:26:13;;;;;;;1.50;1.40;;;;;;;12.94;49.12;95932.61;105315;1257;62514;-38
2024/01/18 22:28:40;;;;;;;1.60;1.50;;;;;;;12.94;49.17;95935.39;105337;1260;75364;-39
2024/01/18 22:31:39;;;;;;;1.80;1.40;;;;;;;12.95;49.26;95938.39;105602;1259;65699;-39
2024/01/18 22:34:05;;;;;;;1.40;1.30;;;;;;;12.97;49.19;95945.04;105285;1259;72630;-38
2024/01/18 22:37:38;;;;;;;1.90;1.60;;;;;;;12.97;49.19;95952.25;105418;1257;62026;-38
2024/01/18 22:40:39;;;;;;;1.60;1.40;;;;;;;12.97;49.21;95953.80;105514;1254;62149;-38
2024/01/18 22:43:05;;;;;;;2.30;1.40;;;;;;;12.98;49.11;95955.10;105511;1265;75220;-39
2024/01/18 22:46:36;;;;;;;2.00;1.50;;;;;;;12.99;49.19;95960.43;105399;1257;65898;-38
2024/01/18 22:49:03;;;;;;;1.70;1.40;;;;;;;13.00;49.13;95962.39;105633;1254;72418;-37
2024/01/18 22:51:30;;;;;;;1.40;1.30;;;;;;;12.99;49.11;95965.58;105470;1261;62044;-39
2024/01/18 22:54:29;;;;;;;1.60;1.50;;;;;;;13.00;49.07;95966.06;105470;1255;62262;-38
2024/01/18 22:56:58;;;;;;;1.50;1.30;;;;;;;13.01;49.19;95973.27;105503;1257;75231;-40
2024/01/18 23:00:18;;;;;;;1.50;1.40;;;;;;;13.02;48.99;95977.15;105570;1254;66403;-39
2024/01/18 23:03:17;;;;;;;1.60;1.50;;;;;;;13.02;48.99;95976.46;105470;1257;71493;-39
2024/01/18 23:06:49;;;;;;;1.70;1.60;;;;;;;13.02;49.08;95977.93;105438;1260;62166;-39
2024/01/18 23:09:16;;;;;;;1.90;1.60;;;;;;;13.02;49.01;95977.54;105775;1257;62157;-38
2024/01/18 23:21:23;;;;;;;1.70;1.50;;;;;;;13.02;49.02;95979.45;105353;1254;74024;-37
2024/01/18 23:24:22;;;;;;;1.60;1.50;;;;;;;13.03;49.09;95977.17;105337;1259;61936;-39
2024/01/18 23:26:48;;;;;;;1.80;1.50;;;;;;;13.03;49.03;95978.02;105532;1258;62167;-39
2024/01/18 23:30:19;;;;;;;1.80;1.40;;;;;;;13.03;49.01;95980.17;105629;1254;75453;-39
2024/01/18 23:33:19;;;;;;;1.40;1.30;;;;;;;13.04;49.01;95981.02;105545;1254;65935;-39
2024/01/18 23:41:28;;;;;;;1.70;1.50;;;;;;;13.04;49.08;95990.47;105399;1254;62040;-37
2024/01/18 23:44:27;;;;;;;2.30;1.40;;;;;;;13.04;49.08;95991.10;105541;1258;62031;-38
2024/01/18 23:47:26;;;;;;;1.70;1.60;;;;;;;13.05;49.04;95999.61;105833;1254;75250;-38
2024/01/18 23:49:57;;;;;;;1.90;1.60;;;;;;;13.04;49.01;96007.69;105631;1257;65815;-38
2024/01/18 23:52:26;;;;;;;1.90;1.60;;;;;;;13.05;49.01;96016.16;105503;1254;72405;-38
2024/01/18 23:54:53;;;;;;;3.30;1.60;;;;;;;13.06;49.06;96028.86;105612;1254;62133;-38
2024/01/18 23:57:20;;;;;;;2.00;1.50;;;;;;;13.07;49.06;96038.39;105703;1253;61967;-39
2024/01/18 23:59:50;;;;;;;1.30;1.20;;;;;;;13.07;48.94;96050.47;105718;1257;75353;-38
